Time;durP1;ratioP1;P1;durP2;ratioP2;P2;SDS_P1;SDS_P2;PMS_P1;PMS_P2;Temp;Humidity;BMP_temperature;BMP_pressure;BME280_temperature;BME280_humidity;BME280_pressure;Samples;Min_cycle;Max_cycle;Signal;HPM_P1;HPM_P2
2021/04/08 00:01:44;;;;;;;9.60;4.20;;;;;;;-0.33;82.26;96706.84;5050647;28;20048;-66
2021/04/08 00:04:10;;;;;;;7.95;4.90;;;;;;;-0.36;82.10;96701.19;5049708;28;20447;-66
2021/04/08 00:06:36;;;;;;;9.20;4.22;;;;;;;-0.31;81.81;96696.75;5050793;28;20079;-66
2021/04/08 00:09:03;;;;;;;8.13;4.10;;;;;;;-0.33;81.81;96696.16;5049226;28;20044;-66
2021/04/08 00:11:29;;;;;;;6.75;4.10;;;;;;;-0.29;81.44;96702.66;5050916;28;20110;-66
2021/04/08 00:13:55;;;;;;;8.77;3.95;;;;;;;-0.29;81.36;96702.66;5049302;28;20677;-66
2021/04/08 00:16:22;;;;;;;8.68;4.28;;;;;;;-0.29;80.89;96694.63;5050444;28;20053;-66
2021/04/08 00:18:47;;;;;;;7.85;3.60;;;;;;;-0.32;80.48;96703.13;5049793;28;20048;-66
2021/04/08 00:21:14;;;;;;;6.30;4.03;;;;;;;-0.20;80.28;96700.41;5049679;28;20041;-66
2021/04/08 00:23:39;;;;;;;9.45;3.55;;;;;;;-0.21;80.31;96704.09;5049421;28;20527;-66
2021/04/08 00:26:06;;;;;;;9.07;3.80;;;;;;;-0.22;80.02;96699.00;5049740;28;20044;-66
2021/04/08 00:28:32;;;;;;;5.63;3.80;;;;;;;-0.15;79.80;96703.16;5050206;28;20080;-66
2021/04/08 00:30:59;;;;;;;8.93;4.60;;;;;;;-0.16;79.34;96695.34;5049796;28;20047;-66
2021/04/08 00:33:26;;;;;;;7.18;3.50;;;;;;;-0.16;79.35;96698.03;5049796;28;20049;-66
2021/04/08 00:35:52;;;;;;;7.57;3.85;;;;;;;-0.17;79.20;96691.88;5049464;28;20052;-65
2021/04/08 00:38:18;;;;;;;6.22;3.80;;;;;;;-0.17;79.11;96683.03;5050184;28;20045;-66
2021/04/08 00:40:44;;;;;;;8.65;3.80;;;;;;;-0.14;79.15;96687.91;5049316;28;20051;-66
2021/04/08 00:43:10;;;;;;;8.55;3.67;;;;;;;-0.21;79.19;96689.91;5049946;28;20377;-67
2021/04/08 00:45:36;;;;;;;5.40;3.58;;;;;;;-0.21;79.34;96687.25;5049222;28;20045;-66
2021/04/08 00:48:02;;;;;;;6.53;3.65;;;;;;;-0.14;79.32;96687.91;5049443;28;20045;-66
2021/04/08 00:50:29;;;;;;;6.65;3.45;;;;;;;-0.15;78.76;96686.31;5049725;28;20102;-66
2021/04/08 00:52:58;;;;;;;6.63;3.58;;;;;;;-0.15;78.22;96702.38;5049178;28;20072;-66
2021/04/08 00:55:28;;;;;;;6.15;3.20;;;;;;;-0.16;78.58;96690.81;5049436;28;20526;-66
2021/04/08 00:57:55;;;;;;;6.00;3.80;;;;;;;-0.21;78.27;96692.59;5049079;28;20523;-66
2021/04/08 01:00:22;;;;;;;7.35;3.65;;;;;;;-0.18;78.11;96690.25;5049972;28;20052;-66
2021/04/08 01:02:48;;;;;;;8.35;3.58;;;;;;;-0.18;78.31;96690.25;5051958;28;20044;-66
2021/04/08 01:05:15;;;;;;;7.13;3.78;;;;;;;-0.17;78.32;96696.41;5053837;28;20041;-66
2021/04/08 01:07:42;;;;;;;5.65;4.07;;;;;;;-0.18;77.98;96697.47;5053151;28;20488;-66
2021/04/08 01:10:10;;;;;;;6.50;3.38;;;;;;;-0.15;77.94;96697.00;5053508;28;20056;-67
2021/04/08 01:12:36;;;;;;;6.28;3.22;;;;;;;-0.13;77.68;96705.59;5053589;28;20087;-66
2021/04/08 01:15:03;;;;;;;6.25;3.38;;;;;;;-0.12;77.75;96712.56;5053257;28;20053;-67
2021/04/08 01:17:37;;;;;;;5.78;3.22;;;;;;;-0.09;77.40;96707.56;5053633;28;20091;-66
2021/04/08 01:20:35;;;;;;;5.22;3.35;;;;;;;-0.12;77.49;96704.53;5052586;28;20065;-66
2021/04/08 01:23:32;;;;;;;5.90;3.08;;;;;;;-0.10;77.29;96702.44;5053273;28;20408;-68
2021/04/08 01:26:19;;;;;;;6.90;3.30;;;;;;;-0.17;77.01;96709.81;5053106;28;20492;-66
2021/04/08 01:28:47;;;;;;;5.93;3.15;;;;;;;-0.15;76.94;96702.38;5052994;28;20037;-68
2021/04/08 01:31:17;;;;;;;7.72;3.25;;;;;;;-0.06;76.86;96711.59;5053378;28;20041;-66
2021/04/08 01:33:48;;;;;;;6.50;3.17;;;;;;;-0.09;76.48;96712.09;5052529;28;20570;-68
2021/04/08 01:36:18;;;;;;;6.03;3.00;;;;;;;-0.14;76.52;96720.84;5053259;28;20090;-66
2021/04/08 01:38:47;;;;;;;4.82;2.83;;;;;;;-0.07;76.46;96716.16;5052729;28;20041;-65
2021/04/08 01:41:17;;;;;;;4.88;2.83;;;;;;;-0.08;76.36;96719.06;5052888;28;20040;-66
2021/04/08 01:43:45;;;;;;;8.15;3.35;;;;;;;-0.05;76.06;96719.41;5052918;28;20515;-67
2021/04/08 01:46:13;;;;;;;7.45;2.97;;;;;;;-0.07;76.05;96720.69;5052462;28;20725;-69
2021/04/08 01:48:43;;;;;;;5.85;3.00;;;;;;;-0.01;76.54;96720.53;5053235;28;20045;-68
2021/04/08 01:51:10;;;;;;;5.90;3.10;;;;;;;0.04;76.18;96725.16;5051798;28;20041;-66
2021/04/08 01:53:41;;;;;;;9.15;3.15;;;;;;;0.10;76.13;96726.88;5053187;28;20041;-68
2021/04/08 01:56:10;;;;;;;9.00;3.67;;;;;;;0.23;75.88;96731.13;5051635;28;20053;-67
2021/04/08 01:58:36;;;;;;;6.15;3.90;;;;;;;0.20;75.53;96737.75;5053530;28;20044;-66
2021/04/08 02:01:02;;;;;;;6.68;3.42;;;;;;;0.22;75.61;96745.56;5051838;28;20433;-69
2021/04/08 02:03:30;;;;;;;7.28;2.83;;;;;;;0.27;75.21;96751.00;5053131;28;20045;-69
2021/04/08 02:05:59;;;;;;;8.00;3.05;;;;;;;0.30;75.40;96745.16;5052538;28;20043;-68
2021/04/08 02:08:27;;;;;;;8.73;3.25;;;;;;;0.33;75.20;96741.19;5052135;28;20041;-66
2021/04/08 02:10:54;;;;;;;9.82;2.90;;;;;;;0.30;75.04;96749.69;5052841;28;20472;-66
2021/04/08 02:13:21;;;;;;;4.88;2.92;;;;;;;0.29;75.64;96750.75;5051782;28;20049;-68
2021/04/08 02:15:49;;;;;;;5.05;2.80;;;;;;;0.21;75.62;96760.81;5053116;28;20052;-68
2021/04/08 02:18:17;;;;;;;6.70;3.58;;;;;;;0.12;77.26;96762.25;5051325;28;20045;-68
2021/04/08 02:20:45;;;;;;;9.30;3.72;;;;;;;0.04;79.45;96757.28;5053096;28;20048;-68
2021/04/08 02:23:17;;;;;;;7.50;4.07;;;;;;;-0.06;81.02;96757.91;5050834;28;20041;-66
2021/04/08 02:25:44;;;;;;;9.85;4.70;;;;;;;-0.18;81.90;96753.69;5052566;28;20053;-67
2021/04/08 02:28:10;;;;;;;9.10;4.45;;;;;;;-0.14;82.30;96758.31;5051576;28;20136;-68
2021/04/08 02:30:46;;;;;;;8.32;4.47;;;;;;;-0.08;82.28;96761.91;5052244;28;20041;-68
2021/04/08 02:33:15;;;;;;;8.60;4.93;;;;;;;-0.10;82.46;96770.19;5052046;28;20047;-69
2021/04/08 02:35:41;;;;;;;11.25;5.18;;;;;;;-0.16;82.81;96764.94;5051507;28;20052;-68
2021/04/08 02:38:07;;;;;;;11.02;5.85;;;;;;;-0.34;83.54;96753.41;5052272;28;20037;-66
2021/04/08 02:40:34;;;;;;;9.60;5.00;;;;;;;-0.38;84.17;96768.28;5051547;28;20043;-66
2021/04/08 02:43:00;;;;;;;11.60;5.22;;;;;;;-0.50;84.82;96758.69;5052811;28;20037;-66
2021/04/08 02:45:26;;;;;;;13.07;6.50;;;;;;;-0.57;85.31;96754.31;5051074;28;20045;-68
2021/04/08 02:47:52;;;;;;;11.77;5.40;;;;;;;-0.64;85.94;96763.50;5052263;28;20601;-66
2021/04/08 02:50:18;;;;;;;13.63;5.80;;;;;;;-0.70;86.32;96769.78;5051261;28;20045;-68
2021/04/08 02:52:55;;;;;;;10.85;5.70;;;;;;;-0.67;86.14;96770.16;5051310;28;20041;-68
2021/04/08 02:55:27;;;;;;;13.40;6.18;;;;;;;-0.58;86.18;96759.88;5051708;28;20413;-66
2021/04/08 02:57:59;;;;;;;14.75;5.82;;;;;;;-0.57;85.89;96772.22;5050867;28;20060;-66
2021/04/08 03:00:29;;;;;;;11.88;6.32;;;;;;;-0.62;86.10;96775.59;5051737;28;20111;-66
2021/04/08 03:03:01;;;;;;;11.82;6.32;;;;;;;-0.72;86.26;96772.72;5050829;28;20041;-66
2021/04/08 03:05:28;;;;;;;15.50;6.87;;;;;;;-0.71;85.98;96771.66;5051860;28;20041;-66
2021/04/08 03:07:56;;;;;;;10.85;5.18;;;;;;;-0.69;85.74;96771.41;5051234;28;20037;-66
2021/04/08 03:10:23;;;;;;;11.13;5.80;;;;;;;-0.67;85.61;96777.34;5051051;28;20045;-66
2021/04/08 03:12:50;;;;;;;12.27;6.05;;;;;;;-0.66;85.72;96782.47;5051441;28;20068;-66
2021/04/08 03:15:23;;;;;;;10.38;5.30;;;;;;;-0.66;85.76;96770.94;5050802;28;20053;-66
2021/04/08 03:17:51;;;;;;;8.63;4.28;;;;;;;-0.60;85.58;96784.19;5051855;28;20041;-66
2021/04/08 03:20:18;;;;;;;10.10;5.07;;;;;;;-0.55;85.43;96788.84;5049954;28;20040;-66
2021/04/08 03:22:46;;;;;;;10.73;5.78;;;;;;;-0.58;85.04;96786.63;5051282;28;20102;-66
2021/04/08 03:25:13;;;;;;;9.55;5.57;;;;;;;-0.63;85.20;96787.31;5050109;28;20036;-66
2021/04/08 03:27:40;;;;;;;14.18;6.05;;;;;;;-0.59;85.68;96801.03;5051325;28;20519;-66
2021/04/08 03:30:12;;;;;;;12.07;6.18;;;;;;;-0.58;85.31;96794.63;5050202;28;20063;-68
2021/04/08 03:32:39;;;;;;;8.50;5.55;;;;;;;-0.59;85.45;96799.19;5051073;28;20045;-68
2021/04/08 03:35:07;;;;;;;10.50;5.55;;;;;;;-0.55;85.53;96799.53;5050669;28;20052;-68
2021/04/08 03:37:34;;;;;;;9.15;5.82;;;;;;;-0.55;85.68;96805.69;5050431;28;20056;-66
2021/04/08 03:40:00;;;;;;;10.35;5.40;;;;;;;-0.57;85.73;96809.66;5051268;28;20037;-68
2021/04/08 03:42:27;;;;;;;11.20;5.68;;;;;;;-0.54;85.87;96811.84;5049932;28;20067;-68
2021/04/08 03:44:53;;;;;;;11.95;6.78;;;;;;;-0.48;85.68;96805.56;5051569;28;20053;-66
2021/04/08 03:47:21;;;;;;;11.32;6.22;;;;;;;-0.53;85.94;96824.16;5049759;28;20045;-66
2021/04/08 03:49:50;;;;;;;13.32;6.95;;;;;;;-0.59;86.24;96811.75;5048487;28;20049;-68
2021/04/08 03:52:17;;;;;;;12.80;6.85;;;;;;;-0.54;86.30;96819.88;5049400;28;20048;-68
2021/04/08 03:54:44;;;;;;;17.15;6.97;;;;;;;-0.53;86.15;96813.47;5050209;28;20049;-66
2021/04/08 03:57:12;;;;;;;12.82;6.80;;;;;;;-0.53;86.17;96814.28;5049894;28;20064;-66
2021/04/08 03:59:39;;;;;;;14.73;6.63;;;;;;;-0.46;86.02;96818.72;5050444;28;20059;-66
2021/04/08 04:02:06;;;;;;;11.27;6.18;;;;;;;-0.47;86.04;96815.22;5050428;28;20049;-66
2021/04/08 04:04:34;;;;;;;10.50;6.30;;;;;;;-0.43;85.68;96818.22;5049864;28;20491;-66
2021/04/08 04:07:01;;;;;;;14.15;7.03;;;;;;;-0.37;85.41;96823.44;5050891;28;20041;-66
2021/04/08 04:09:28;;;;;;;11.70;6.30;;;;;;;-0.42;85.44;96820.66;5048716;28;20044;-66
2021/04/08 04:11:56;;;;;;;12.07;6.35;;;;;;;-0.43;85.24;96816.34;5050690;28;20503;-65
2021/04/08 04:14:26;;;;;;;15.43;6.78;;;;;;;-0.38;85.26;96819.13;5049034;28;20053;-66
2021/04/08 04:16:55;;;;;;;9.80;6.22;;;;;;;-0.33;85.03;96823.78;5049877;28;20059;-66
2021/04/08 04:19:21;;;;;;;10.80;7.38;;;;;;;-0.40;84.74;96823.91;5049505;28;21923;-68
2021/04/08 04:21:47;;;;;;;14.23;6.82;;;;;;;-0.41;85.13;96829.53;5049781;28;20044;-68
2021/04/08 04:24:13;;;;;;;14.73;6.80;;;;;;;-0.38;84.80;96821.81;5049857;28;20075;-69
2021/04/08 04:26:39;;;;;;;11.93;6.05;;;;;;;-0.41;84.40;96822.31;5049472;28;20500;-66
2021/04/08 04:29:05;;;;;;;12.30;6.88;;;;;;;-0.36;84.25;96834.97;5050280;28;20075;-66
2021/04/08 04:31:33;;;;;;;13.50;7.50;;;;;;;-0.37;83.96;96828.78;5049331;28;20463;-65
2021/04/08 04:33:59;;;;;;;12.13;6.25;;;;;;;-0.29;83.40;96833.78;5050651;28;20045;-66
2021/04/08 04:36:25;;;;;;;12.77;6.45;;;;;;;-0.22;83.25;96830.16;5048239;28;20052;-66
2021/04/08 04:38:51;;;;;;;13.65;6.60;;;;;;;-0.18;82.88;96842.81;5050221;28;20067;-68
2021/04/08 04:41:17;;;;;;;10.95;6.32;;;;;;;-0.09;82.83;96840.59;5049310;28;20049;-69
2021/04/08 04:43:43;;;;;;;12.43;6.07;;;;;;;-0.10;82.55;96847.00;5050060;28;20049;-66
2021/04/08 04:46:10;;;;;;;14.40;6.72;;;;;;;0.01;82.63;96843.47;5049572;28;20045;-67
2021/04/08 04:48:37;;;;;;;14.57;6.50;;;;;;;0.01;82.53;96850.69;5049439;28;20056;-66
2021/04/08 04:51:03;;;;;;;10.80;7.05;;;;;;;0.04;82.85;96850.19;5049727;28;20049;-67
2021/04/08 04:53:29;;;;;;;19.92;8.05;;;;;;;0.02;83.04;96869.19;5049338;28;20049;-66
2021/04/08 04:55:55;;;;;;;13.75;7.03;;;;;;;0.08;83.02;96862.88;5050367;28;20558;-66
2021/04/08 04:58:22;;;;;;;14.30;7.10;;;;;;;0.07;83.30;96860.44;5048627;28;20267;-66
2021/04/08 05:00:47;;;;;;;13.52;7.28;;;;;;;0.11;83.19;96867.75;5050447;28;20049;-66
2021/04/08 05:03:13;;;;;;;12.35;7.25;;;;;;;0.09;83.38;96885.09;5048845;28;20045;-66
2021/04/08 05:05:39;;;;;;;12.20;7.30;;;;;;;0.17;83.44;96882.88;5050050;28;20132;-66
2021/04/08 05:08:06;;;;;;;13.60;7.72;;;;;;;0.22;83.37;96896.34;5049060;28;20416;-66
2021/04/08 05:10:32;;;;;;;14.27;8.05;;;;;;;0.22;83.75;96907.06;5049252;28;20049;-66
2021/04/08 05:12:58;;;;;;;13.43;8.02;;;;;;;0.24;83.83;96909.50;5049667;28;20049;-66
2021/04/08 05:15:24;;;;;;;16.00;9.25;;;;;;;-0.08;84.27;96917.16;5049025;28;20049;-66
2021/04/08 05:17:50;;;;;;;16.45;7.55;;;;;;;-0.14;84.19;96907.41;5049945;28;20048;-66
2021/04/08 05:20:16;;;;;;;11.00;6.30;;;;;;;-0.16;83.64;96909.50;5048480;28;20489;-67
2021/04/08 05:22:42;;;;;;;12.13;5.68;;;;;;;-0.27;83.20;96913.81;5050195;28;20060;-66
2021/04/08 05:25:09;;;;;;;12.13;6.10;;;;;;;-0.23;82.96;96916.84;5048411;28;20060;-67
2021/04/08 05:27:35;;;;;;;9.20;6.30;;;;;;;-0.23;82.96;96925.69;5049843;28;20045;-66
2021/04/08 05:30:02;;;;;;;12.57;7.10;;;;;;;-0.16;82.78;96920.19;5048300;28;20049;-67
2021/04/08 05:32:28;;;;;;;12.30;6.50;;;;;;;-0.14;82.67;96932.31;5049577;28;20055;-66
2021/04/08 05:34:54;;;;;;;12.05;6.88;;;;;;;-0.22;82.39;96932.66;5049527;28;20046;-66
2021/04/08 05:37:20;;;;;;;11.48;6.47;;;;;;;-0.23;82.27;96932.91;5048377;28;20049;-66
2021/04/08 05:39:47;;;;;;;11.75;6.75;;;;;;;-0.28;81.91;96938.97;5049282;28;20041;-66
2021/04/08 05:42:14;;;;;;;12.43;7.43;;;;;;;-0.30;82.53;96941.88;5048286;28;20520;-67
2021/04/08 05:44:40;;;;;;;11.27;7.20;;;;;;;-0.22;82.58;96942.56;5050099;28;20049;-66
2021/04/08 05:47:06;;;;;;;15.60;8.88;;;;;;;-0.23;82.75;96940.94;5048163;28;20131;-67
2021/04/08 05:49:33;;;;;;;17.48;8.40;;;;;;;-0.11;83.19;96950.56;5052302;28;20045;-66
2021/04/08 05:51:58;;;;;;;10.80;7.20;;;;;;;-0.08;82.17;96949.28;5052349;28;20075;-66
2021/04/08 05:54:24;;;;;;;10.30;6.18;;;;;;;-0.09;81.09;96947.66;5052940;28;20512;-66
2021/04/08 05:56:50;;;;;;;10.63;6.43;;;;;;;-0.04;79.91;96945.09;5052643;28;20174;-66
2021/04/08 05:59:16;;;;;;;12.80;6.25;;;;;;;-0.02;79.42;96961.72;5052301;28;20926;-66
2021/04/08 06:01:42;;;;;;;11.07;6.38;;;;;;;0.01;79.02;96963.94;5052921;28;20053;-66
2021/04/08 06:04:08;;;;;;;13.82;5.88;;;;;;;0.00;78.79;96965.00;5052003;28;20037;-66
2021/04/08 06:06:35;;;;;;;11.68;6.68;;;;;;;-0.06;79.61;96973.97;5053265;28;20075;-67
2021/04/08 06:09:01;;;;;;;10.45;6.95;;;;;;;-0.14;79.99;96971.66;5051455;28;20053;-69
2021/04/08 06:11:27;;;;;;;13.63;6.97;;;;;;;-0.28;79.68;96971.88;5053199;28;20080;-66
2021/04/08 06:13:53;;;;;;;14.35;8.23;;;;;;;-0.31;80.46;96971.56;5051920;28;20079;-67
2021/04/08 06:16:19;;;;;;;13.15;7.38;;;;;;;-0.30;80.79;96981.22;5052476;28;20076;-75
2021/04/08 06:18:45;;;;;;;14.20;7.72;;;;;;;-0.23;80.48;96984.56;5051700;28;20408;-74
2021/04/08 06:21:11;;;;;;;14.32;7.10;;;;;;;-0.22;80.62;96990.72;5052224;28;20044;-74
2021/04/08 06:23:38;;;;;;;11.57;7.22;;;;;;;-0.27;80.00;96994.91;5052183;28;20076;-72
2021/04/08 06:26:04;;;;;;;10.40;7.50;;;;;;;-0.19;80.43;96995.63;5051597;28;20598;-71
2021/04/08 06:28:30;;;;;;;15.32;7.40;;;;;;;-0.18;79.52;96997.25;5052457;28;20049;-71
2021/04/08 06:30:56;;;;;;;11.48;7.53;;;;;;;-0.16;79.60;97005.84;5052097;28;20048;-71
2021/04/08 06:33:22;;;;;;;11.55;6.28;;;;;;;-0.15;79.15;97002.16;5051992;28;20518;-72
2021/04/08 06:35:48;;;;;;;14.30;6.43;;;;;;;-0.15;78.91;97007.50;5050761;28;20047;-71
2021/04/08 06:38:14;;;;;;;12.65;7.13;;;;;;;-0.17;79.13;97014.94;5052309;28;20124;-71
2021/04/08 06:40:41;;;;;;;11.55;6.43;;;;;;;-0.25;78.62;97013.44;5051542;28;20045;-71
2021/04/08 06:43:11;;;;;;;15.13;7.38;;;;;;;-0.25;79.24;97009.94;5051706;28;20041;-72
2021/04/08 06:45:39;;;;;;;11.02;7.00;;;;;;;-0.24;79.35;97019.59;5051341;28;20548;-71
2021/04/08 06:48:08;;;;;;;13.43;6.57;;;;;;;-0.31;79.10;97014.38;5049705;28;20048;-72
2021/04/08 06:50:36;;;;;;;10.68;7.18;;;;;;;-0.39;79.82;97017.38;5051849;28;20126;-72
2021/04/08 06:53:03;;;;;;;12.73;6.43;;;;;;;-0.35;79.81;97011.34;5050274;28;20049;-70
2021/04/08 06:55:29;;;;;;;12.25;6.55;;;;;;;-0.33;79.83;97011.91;5051932;28;20053;-70
2021/04/08 06:57:58;;;;;;;10.63;7.15;;;;;;;-0.33;79.87;97011.91;5050629;28;20558;-70
2021/04/08 07:00:24;;;;;;;13.90;6.43;;;;;;;-0.43;79.37;97009.00;5051537;28;20051;-72
2021/04/08 07:02:51;;;;;;;11.82;6.60;;;;;;;-0.22;79.60;97017.50;5050781;28;20527;-70
2021/04/08 07:05:17;;;;;;;10.55;5.93;;;;;;;-0.24;78.21;97016.94;5051464;28;20132;-70
2021/04/08 07:07:43;;;;;;;10.13;6.10;;;;;;;-0.16;78.26;97005.84;5050901;28;20072;-70
2021/04/08 07:10:10;;;;;;;9.05;6.10;;;;;;;-0.26;77.90;97014.50;5050482;28;20049;-70
2021/04/08 07:12:36;;;;;;;12.55;6.10;;;;;;;-0.34;77.82;97009.47;5050591;28;20049;-72
2021/04/08 07:15:05;;;;;;;13.90;6.25;;;;;;;-0.42;77.68;97013.28;5050992;28;20045;-70
2021/04/08 07:17:31;;;;;;;13.60;5.70;;;;;;;-0.43;77.95;97025.06;5051439;28;20050;-71
2021/04/08 07:19:58;;;;;;;15.55;5.95;;;;;;;-0.47;77.75;97026.59;5050814;28;20044;-70
2021/04/08 07:22:25;;;;;;;9.32;6.43;;;;;;;-0.44;77.87;97036.00;5050881;28;20135;-71
2021/04/08 07:24:52;;;;;;;14.05;6.22;;;;;;;-0.57;77.71;97029.00;5050204;28;20045;-71
2021/04/08 07:27:21;;;;;;;12.70;5.68;;;;;;;-0.59;77.19;97031.91;5051000;28;20045;-70
2021/04/08 07:29:54;;;;;;;10.73;6.07;;;;;;;-0.55;77.26;97037.63;5050536;28;20080;-70
2021/04/08 07:32:29;;;;;;;11.68;6.03;;;;;;;-0.45;77.04;97037.84;5050591;28;20228;-70
2021/04/08 07:34:56;;;;;;;10.57;6.43;;;;;;;-0.37;76.83;97040.19;5050864;28;20508;-71
2021/04/08 07:37:28;;;;;;;9.30;6.07;;;;;;;-0.34;76.22;97045.06;5049739;28;20056;-70
2021/04/08 07:39:55;;;;;;;11.23;5.80;;;;;;;-0.29;76.24;97039.03;5051362;28;20061;-69
2021/04/08 07:42:26;;;;;;;12.98;5.95;;;;;;;-0.29;75.60;97047.88;5049413;28;20056;-70
2021/04/08 07:44:54;;;;;;;10.25;5.93;;;;;;;-0.20;75.75;97051.03;5050722;28;20519;-70
2021/04/08 07:47:24;;;;;;;8.85;6.00;;;;;;;-0.08;75.44;97045.66;5049422;28;20060;-71
2021/04/08 07:49:52;;;;;;;9.52;6.10;;;;;;;0.07;74.34;97056.72;5050904;28;20051;-71
2021/04/08 07:52:27;;;;;;;9.68;5.90;;;;;;;0.20;73.67;97055.66;5049799;28;20041;-70
2021/04/08 07:55:03;;;;;;;9.32;5.68;;;;;;;0.24;72.17;97054.97;5050471;28;20053;-70
2021/04/08 07:57:31;;;;;;;11.40;5.40;;;;;;;0.24;72.18;97063.00;5050524;28;20037;-70
2021/04/08 07:59:57;;;;;;;10.75;5.53;;;;;;;0.23;72.60;97069.41;5048938;28;20702;-71
2021/04/08 08:02:27;;;;;;;10.48;5.78;;;;;;;0.32;72.49;97061.03;5050069;28;20496;-70
2021/04/08 08:05:15;;;;;;;11.38;5.25;;;;;;;0.33;70.89;97062.66;5049912;28;20698;-70
2021/04/08 08:07:42;;;;;;;8.70;5.38;;;;;;;0.38;70.88;97076.16;5050865;28;20037;-71
2021/04/08 08:10:13;;;;;;;9.82;5.35;;;;;;;0.40;69.97;97074.03;5049233;28;20505;-71
2021/04/08 08:12:39;;;;;;;11.63;5.07;;;;;;;0.45;69.44;97074.16;5049041;28;20138;-70
2021/04/08 08:15:14;;;;;;;7.53;4.70;;;;;;;0.40;67.72;97079.41;5049176;28;20511;-73
2021/04/08 08:17:41;;;;;;;7.95;4.75;;;;;;;0.43;68.09;97071.72;5049593;28;20053;-70
2021/04/08 08:20:08;;;;;;;8.27;5.03;;;;;;;0.40;67.75;97074.03;5049883;28;20401;-72
2021/04/08 08:22:36;;;;;;;9.18;5.25;;;;;;;0.39;68.13;97083.94;5049423;28;20055;-72
2021/04/08 08:25:04;;;;;;;8.77;4.55;;;;;;;0.45;67.62;97082.19;5049914;28;20045;-71
2021/04/08 08:27:38;;;;;;;10.07;4.97;;;;;;;0.55;67.21;97079.72;5049137;28;20049;-72
2021/04/08 08:30:06;;;;;;;9.68;5.20;;;;;;;0.76;67.09;97078.28;5049664;28;20049;-72
2021/04/08 08:32:32;;;;;;;10.82;5.47;;;;;;;1.27;67.84;97077.38;5049792;28;20111;-71
2021/04/08 08:34:59;;;;;;;9.25;4.68;;;;;;;1.72;65.43;97081.91;5049725;28;20075;-72
2021/04/08 08:37:27;;;;;;;9.15;5.10;;;;;;;1.86;65.19;97084.25;5049721;28;20053;-71
2021/04/08 08:39:55;;;;;;;8.57;5.22;;;;;;;1.88;66.00;97085.66;5049100;28;20045;-72
2021/04/08 08:42:23;;;;;;;10.23;5.18;;;;;;;1.98;67.19;97084.97;5050095;28;20041;-72
2021/04/08 08:44:50;;;;;;;8.60;5.40;;;;;;;2.29;66.39;97084.38;5049066;28;20091;-71
2021/04/08 08:47:18;;;;;;;11.18;5.82;;;;;;;2.59;65.53;97088.56;5049949;28;20063;-71
2021/04/08 08:49:47;;;;;;;8.43;5.68;;;;;;;2.88;65.51;97086.50;5048527;28;20522;-72
2021/04/08 08:52:19;;;;;;;9.30;5.43;;;;;;;2.93;65.54;97085.75;5049422;28;20059;-72
2021/04/08 08:54:45;;;;;;;10.68;5.65;;;;;;;3.03;65.40;97081.31;5049252;28;20041;-73
2021/04/08 08:57:12;;;;;;;8.73;5.70;;;;;;;3.43;63.90;97084.66;5049005;28;20504;-73
2021/04/08 08:59:38;;;;;;;9.88;5.72;;;;;;;4.09;62.87;97086.06;5049578;28;20047;-73
2021/04/08 09:02:05;;;;;;;9.40;5.30;;;;;;;4.20;60.79;97084.25;5048637;28;20075;-73
2021/04/08 09:04:31;;;;;;;10.00;5.80;;;;;;;4.30;61.15;97087.00;5050140;28;20068;-71
2021/04/08 09:06:59;;;;;;;11.00;5.70;;;;;;;4.64;61.06;97084.78;5050120;28;20045;-72
2021/04/08 09:09:28;;;;;;;7.75;5.55;;;;;;;4.92;60.48;97088.97;5049662;28;20126;-73
2021/04/08 09:11:55;;;;;;;8.15;5.22;;;;;;;4.80;60.23;97079.44;5048951;28;20045;-73
2021/04/08 09:14:22;;;;;;;9.93;6.25;;;;;;;5.46;58.89;97085.09;5049040;28;20068;-73
2021/04/08 09:16:51;;;;;;;7.55;5.45;;;;;;;5.70;57.44;97085.41;5049447;28;20054;-72
2021/04/08 09:19:25;;;;;;;11.77;6.22;;;;;;;5.99;57.67;97083.81;5048843;28;20048;-73
2021/04/08 09:21:53;;;;;;;7.30;5.20;;;;;;;6.52;57.32;97087.03;5049644;28;20110;-73
2021/04/08 09:24:21;;;;;;;9.30;5.85;;;;;;;7.18;56.29;97080.56;5052430;28;20045;-73
2021/04/08 09:26:51;;;;;;;7.57;5.00;;;;;;;7.67;54.84;97085.13;5053606;28;20500;-74
2021/04/08 09:29:46;;;;;;;9.68;4.68;;;;;;;7.52;52.57;97083.38;5052574;28;20045;-73
2021/04/08 09:32:23;;;;;;;10.60;4.97;;;;;;;7.68;50.86;97078.66;5052939;28;20519;-73
2021/04/08 09:35:16;;;;;;;12.77;5.50;;;;;;;7.93;52.38;97080.34;5053465;28;20045;-73
2021/04/08 09:38:16;;;;;;;9.33;5.40;;;;;;;6.72;51.84;97079.91;5052520;28;20504;-74
2021/04/08 09:41:03;;;;;;;8.05;5.30;;;;;;;6.73;51.02;97078.81;4972691;28;20887;-72
2021/04/08 09:43:32;;;;;;;8.98;5.68;;;;;;;6.78;53.53;97084.22;4968229;28;20119;-75
2021/04/08 09:46:12;;;;;;;9.20;5.90;;;;;;;6.52;52.06;97084.31;5019620;28;20045;-74
2021/04/08 09:48:50;;;;;;;7.68;5.38;;;;;;;5.53;52.08;97085.63;5053119;28;20123;-74
2021/04/08 09:51:32;;;;;;;7.90;5.60;;;;;;;5.84;54.60;97080.25;5033553;28;20049;-72
2021/04/08 09:54:01;;;;;;;7.55;5.13;;;;;;;6.47;54.02;97084.31;5053694;28;20393;-72
2021/04/08 09:56:53;;;;;;;8.45;4.60;;;;;;;6.33;50.63;97085.97;5052129;28;20044;-74
2021/04/08 09:59:21;;;;;;;8.23;5.03;;;;;;;6.27;49.06;97078.94;5032624;28;20053;-72
2021/04/08 10:01:48;;;;;;;6.72;4.43;;;;;;;5.66;46.86;97089.72;5031927;28;20046;-74
2021/04/08 10:04:17;;;;;;;9.93;4.70;;;;;;;4.77;50.54;97097.00;5032140;28;20054;-74
2021/04/08 10:06:44;;;;;;;9.75;5.32;;;;;;;4.88;51.15;97089.75;5033282;28;20049;-73
2021/04/08 10:09:12;;;;;;;5.78;4.32;;;;;;;5.46;49.98;97096.69;5031321;28;20045;-71
2021/04/08 10:11:38;;;;;;;6.88;4.57;;;;;;;5.03;50.50;97084.41;5033330;28;20052;-74
2021/04/08 10:14:18;;;;;;;8.32;4.75;;;;;;;4.49;51.62;97100.06;5031640;28;20045;-75
2021/04/08 10:16:45;;;;;;;10.02;4.68;;;;;;;4.10;50.83;97100.34;5032554;28;20416;-73
2021/04/08 10:19:11;;;;;;;7.78;4.57;;;;;;;4.12;52.95;97103.59;5037119;28;20045;-74
2021/04/08 10:21:37;;;;;;;8.95;4.50;;;;;;;4.07;49.20;97103.53;5051843;28;20618;-74
2021/04/08 10:24:13;;;;;;;9.38;5.20;;;;;;;4.15;51.78;97098.50;5052032;28;20577;-74
2021/04/08 10:26:39;;;;;;;8.40;4.90;;;;;;;4.14;49.27;97090.69;5051369;28;20520;-73
2021/04/08 10:29:06;;;;;;;10.15;5.15;;;;;;;4.16;54.41;97088.53;5052207;28;20041;-73
2021/04/08 10:31:34;;;;;;;8.10;4.35;;;;;;;4.32;51.86;97092.94;5051916;28;20051;-74
2021/04/08 10:34:05;;;;;;;9.43;4.88;;;;;;;4.50;52.41;97089.03;5051736;28;20557;-73
2021/04/08 10:36:33;;;;;;;6.63;5.10;;;;;;;4.54;51.98;97094.69;5051355;28;20055;-74
2021/04/08 10:39:13;;;;;;;10.75;5.53;;;;;;;4.81;52.98;97079.22;5051926;28;20045;-71
2021/04/08 10:41:41;;;;;;;8.90;4.43;;;;;;;4.98;48.97;97085.22;5051916;28;20072;-73
2021/04/08 10:44:20;;;;;;;7.75;5.35;;;;;;;5.23;53.66;97080.97;5050967;28;20536;-74
2021/04/08 10:46:47;;;;;;;8.35;5.13;;;;;;;5.23;50.94;97078.28;5052635;28;20118;-74
2021/04/08 10:49:19;;;;;;;9.93;5.35;;;;;;;5.57;51.54;97080.50;5050546;28;20500;-74
2021/04/08 10:51:46;;;;;;;7.30;4.80;;;;;;;5.52;49.36;97080.50;5052477;28;20098;-71
2021/04/08 10:54:13;;;;;;;10.15;5.32;;;;;;;5.41;51.78;97075.06;5050134;28;20055;-74
2021/04/08 10:56:39;;;;;;;6.65;5.00;;;;;;;5.60;50.23;97074.56;5051361;28;20638;-70
2021/04/08 10:59:19;;;;;;;8.50;5.15;;;;;;;5.85;49.31;97077.31;5050300;28;20053;-74
2021/04/08 11:01:45;;;;;;;6.80;5.05;;;;;;;6.00;50.32;97079.22;5051571;28;20050;-71
2021/04/08 11:04:11;;;;;;;6.07;4.78;;;;;;;5.96;49.39;97073.56;5051222;28;20056;-73
2021/04/08 11:06:38;;;;;;;8.15;4.15;;;;;;;5.83;48.61;97073.22;5051251;28;20416;-70
2021/04/08 11:09:05;;;;;;;12.13;4.95;;;;;;;5.54;50.90;97086.47;5051368;28;20059;-71
2021/04/08 11:11:31;;;;;;;7.72;4.70;;;;;;;5.67;50.01;97075.13;5050965;28;20048;-71
2021/04/08 11:13:57;;;;;;;7.60;5.03;;;;;;;5.87;50.36;97075.13;5052010;28;20049;-70
2021/04/08 11:16:28;;;;;;;7.88;4.47;;;;;;;5.81;48.00;97084.31;5049984;28;20057;-71
2021/04/08 11:18:56;;;;;;;7.40;4.43;;;;;;;5.49;49.72;97084.56;5051321;28;20130;-69
2021/04/08 11:21:23;;;;;;;7.32;4.60;;;;;;;5.57;53.36;97081.31;5050441;28;20053;-70
2021/04/08 11:23:51;;;;;;;8.18;4.72;;;;;;;5.46;51.62;97080.47;5050791;28;20052;-70
2021/04/08 11:26:17;;;;;;;6.82;4.68;;;;;;;5.52;51.29;97083.19;5050688;28;20052;-71
2021/04/08 11:28:43;;;;;;;7.82;4.88;;;;;;;5.57;52.57;97070.50;5051307;28;20048;-70
2021/04/08 11:31:13;;;;;;;7.53;4.45;;;;;;;5.60;52.66;97074.56;5051147;28;20128;-69
2021/04/08 11:33:39;;;;;;;7.70;4.65;;;;;;;5.70;52.77;97078.09;5050147;28;20630;-70
2021/04/08 11:36:16;;;;;;;7.25;4.82;;;;;;;5.98;53.04;97075.97;5051129;28;20078;-71
2021/04/08 11:38:42;;;;;;;9.15;4.45;;;;;;;6.02;49.05;97071.66;5050041;28;20052;-71
2021/04/08 11:41:10;;;;;;;8.75;4.60;;;;;;;6.18;51.16;97072.44;5050512;28;20055;-71